sensor_id;sensor_type;location;lat;lon;timestamp;pressure;altitude;pressure_sealevel;temperature;humidity
70488;BME280;57976;48.174;16.370;2023-10-19T00:00:51;98257.30;;;9.91;100.00
70488;BME280;57976;48.174;16.370;2023-10-19T00:02:56;98254.31;;;9.93;100.00
70488;BME280;57976;48.174;16.370;2023-10-19T00:05:01;98245.77;;;9.92;100.00
70488;BME280;57976;48.174;16.370;2023-10-19T00:07:05;98243.89;;;9.91;100.00
70488;BME280;57976;48.174;16.370;2023-10-19T00:09:13;98236.23;;;9.91;100.00
70488;BME280;57976;48.174;16.370;2023-10-19T00:11:18;98233.81;;;9.92;100.00
70488;BME280;57976;48.174;16.370;2023-10-19T00:13:23;98230.89;;;9.94;100.00
70488;BME280;57976;48.174;16.370;2023-10-19T00:15:28;98228.09;;;9.95;100.00
70488;BME280;57976;48.174;16.370;2023-10-19T00:17:33;98217.12;;;9.95;100.00
70488;BME280;57976;48.174;16.370;2023-10-19T00:19:38;98214.10;;;9.94;100.00
70488;BME280;57976;48.174;16.370;2023-10-19T00:21:42;98215.54;;;9.93;100.00
70488;BME280;57976;48.174;16.370;2023-10-19T00:23:50;98213.02;;;9.93;100.00
70488;BME280;57976;48.174;16.370;2023-10-19T00:25:56;98207.13;;;9.93;100.00
70488;BME280;57976;48.174;16.370;2023-10-19T00:28:01;98198.42;;;9.94;100.00
70488;BME280;57976;48.174;16.370;2023-10-19T00:30:09;98191.95;;;9.94;100.00
70488;BME280;57976;48.174;16.370;2023-10-19T00:32:14;98203.30;;;9.97;100.00
70488;BME280;57976;48.174;16.370;2023-10-19T00:34:19;98200.88;;;9.98;100.00
70488;BME280;57976;48.174;16.370;2023-10-19T00:36:25;98203.50;;;9.98;100.00
70488;BME280;57976;48.174;16.370;2023-10-19T00:38:30;98200.84;;;9.98;100.00
70488;BME280;57976;48.174;16.370;2023-10-19T00:40:35;98195.59;;;10.01;100.00
70488;BME280;57976;48.174;16.370;2023-10-19T00:42:40;98187.00;;;10.04;100.00
70488;BME280;57976;48.174;16.370;2023-10-19T00:44:44;98186.48;;;10.06;100.00
70488;BME280;57976;48.174;16.370;2023-10-19T00:46:49;98179.33;;;10.08;100.00
70488;BME280;57976;48.174;16.370;2023-10-19T00:48:56;98178.48;;;10.12;100.00
70488;BME280;57976;48.174;16.370;2023-10-19T00:51:01;98176.52;;;10.17;100.00
70488;BME280;57976;48.174;16.370;2023-10-19T00:53:07;98169.05;;;10.19;100.00
70488;BME280;57976;48.174;16.370;2023-10-19T00:55:15;98163.92;;;10.21;100.00
70488;BME280;57976;48.174;16.370;2023-10-19T00:57:20;98165.52;;;10.23;100.00
70488;BME280;57976;48.174;16.370;2023-10-19T00:59:27;98166.47;;;10.27;100.00
70488;BME280;57976;48.174;16.370;2023-10-19T01:01:32;98164.05;;;10.33;100.00
70488;BME280;57976;48.174;16.370;2023-10-19T01:03:37;98154.29;;;10.36;100.00
70488;BME280;57976;48.174;16.370;2023-10-19T01:05:44;98149.92;;;10.38;100.00
70488;BME280;57976;48.174;16.370;2023-10-19T01:07:49;98148.99;;;10.40;100.00
70488;BME280;57976;48.174;16.370;2023-10-19T01:09:55;98147.71;;;10.40;100.00
70488;BME280;57976;48.174;16.370;2023-10-19T01:12:00;98145.92;;;10.43;100.00
70488;BME280;57976;48.174;16.370;2023-10-19T01:14:21;98143.14;;;10.46;100.00
70488;BME280;57976;48.174;16.370;2023-10-19T01:16:26;98151.02;;;10.50;100.00
70488;BME280;57976;48.174;16.370;2023-10-19T01:18:32;98146.91;;;10.50;100.00
70488;BME280;57976;48.174;16.370;2023-10-19T01:20:39;98145.39;;;10.51;100.00
70488;BME280;57976;48.174;16.370;2023-10-19T01:22:52;98146.59;;;10.52;100.00
70488;BME280;57976;48.174;16.370;2023-10-19T01:24:57;98147.50;;;10.55;100.00
70488;BME280;57976;48.174;16.370;2023-10-19T01:27:02;98137.77;;;10.57;100.00
70488;BME280;57976;48.174;16.370;2023-10-19T01:29:06;98130.21;;;10.60;100.00
70488;BME280;57976;48.174;16.370;2023-10-19T01:31:12;98127.66;;;10.62;100.00
70488;BME280;57976;48.174;16.370;2023-10-19T01:33:21;98122.50;;;10.66;100.00
70488;BME280;57976;48.174;16.370;2023-10-19T01:35:26;98120.56;;;10.68;100.00
70488;BME280;57976;48.174;16.370;2023-10-19T01:37:32;98121.14;;;10.70;100.00
70488;BME280;57976;48.174;16.370;2023-10-19T01:39:37;98121.90;;;10.73;100.00
70488;BME280;57976;48.174;16.370;2023-10-19T01:41:42;98120.56;;;10.75;100.00
70488;BME280;57976;48.174;16.370;2023-10-19T01:43:49;98115.19;;;10.75;100.00
70488;BME280;57976;48.174;16.370;2023-10-19T01:45:54;98108.08;;;10.76;100.00
70488;BME280;57976;48.174;16.370;2023-10-19T01:48:00;98105.55;;;10.78;100.00
70488;BME280;57976;48.174;16.370;2023-10-19T01:50:06;98108.42;;;10.80;100.00
70488;BME280;57976;48.174;16.370;2023-10-19T01:52:11;98103.89;;;10.82;100.00
70488;BME280;57976;48.174;16.370;2023-10-19T01:54:19;98098.02;;;10.84;100.00
70488;BME280;57976;48.174;16.370;2023-10-19T01:56:24;98093.21;;;10.86;100.00
70488;BME280;57976;48.174;16.370;2023-10-19T01:58:30;98089.15;;;10.87;100.00
70488;BME280;57976;48.174;16.370;2023-10-19T02:00:35;98093.31;;;10.90;100.00
70488;BME280;57976;48.174;16.370;2023-10-19T02:02:40;98090.19;;;10.93;100.00
70488;BME280;57976;48.174;16.370;2023-10-19T02:04:45;98088.73;;;10.95;100.00
70488;BME280;57976;48.174;16.370;2023-10-19T02:06:50;98090.71;;;10.96;100.00
70488;BME280;57976;48.174;16.370;2023-10-19T02:09:00;98083.95;;;10.96;100.00
70488;BME280;57976;48.174;16.370;2023-10-19T02:11:08;98087.84;;;10.96;100.00
70488;BME280;57976;48.174;16.370;2023-10-19T02:13:13;98086.35;;;10.96;100.00
70488;BME280;57976;48.174;16.370;2023-10-19T02:15:18;98080.80;;;10.98;100.00
70488;BME280;57976;48.174;16.370;2023-10-19T02:17:23;98079.27;;;11.03;100.00
70488;BME280;57976;48.174;16.370;2023-10-19T02:19:29;98076.61;;;11.06;100.00
70488;BME280;57976;48.174;16.370;2023-10-19T02:21:34;98078.83;;;11.08;100.00
70488;BME280;57976;48.174;16.370;2023-10-19T02:23:39;98078.74;;;11.11;100.00
70488;BME280;57976;48.174;16.370;2023-10-19T02:25:44;98074.45;;;11.12;100.00
70488;BME280;57976;48.174;16.370;2023-10-19T02:27:50;98074.56;;;11.15;100.00
70488;BME280;57976;48.174;16.370;2023-10-19T02:29:55;98070.90;;;11.16;100.00
70488;BME280;57976;48.174;16.370;2023-10-19T02:32:00;98069.41;;;11.10;100.00
70488;BME280;57976;48.174;16.370;2023-10-19T02:34:08;98063.40;;;11.07;100.00
70488;BME280;57976;48.174;16.370;2023-10-19T02:36:14;98059.73;;;11.04;100.00
70488;BME280;57976;48.174;16.370;2023-10-19T02:38:19;98052.88;;;10.98;100.00
70488;BME280;57976;48.174;16.370;2023-10-19T02:40:24;98045.30;;;10.95;100.00
70488;BME280;57976;48.174;16.370;2023-10-19T02:42:29;98045.02;;;10.88;100.00
70488;BME280;57976;48.174;16.370;2023-10-19T02:44:34;98042.95;;;10.83;100.00
70488;BME280;57976;48.174;16.370;2023-10-19T02:46:39;98041.11;;;10.79;100.00
70488;BME280;57976;48.174;16.370;2023-10-19T02:48:44;98037.21;;;10.76;100.00
70488;BME280;57976;48.174;16.370;2023-10-19T02:50:49;98034.39;;;10.73;100.00
70488;BME280;57976;48.174;16.370;2023-10-19T02:52:54;98039.45;;;10.71;100.00
70488;BME280;57976;48.174;16.370;2023-10-19T02:54:59;98037.36;;;10.69;100.00
70488;BME280;57976;48.174;16.370;2023-10-19T02:57:04;98035.55;;;10.65;100.00
70488;BME280;57976;48.174;16.370;2023-10-19T02:59:10;98029.33;;;10.61;100.00
70488;BME280;57976;48.174;16.370;2023-10-19T03:01:19;98020.14;;;10.60;100.00
70488;BME280;57976;48.174;16.370;2023-10-19T03:03:24;98011.98;;;10.59;100.00
70488;BME280;57976;48.174;16.370;2023-10-19T03:05:29;98011.02;;;10.58;100.00
70488;BME280;57976;48.174;16.370;2023-10-19T03:07:34;98007.73;;;10.56;100.00
70488;BME280;57976;48.174;16.370;2023-10-19T03:09:44;98010.13;;;10.53;100.00
70488;BME280;57976;48.174;16.370;2023-10-19T03:11:52;98013.67;;;10.52;100.00
70488;BME280;57976;48.174;16.370;2023-10-19T03:13:57;98011.66;;;10.48;100.00
70488;BME280;57976;48.174;16.370;2023-10-19T03:16:05;98004.20;;;10.46;100.00
70488;BME280;57976;48.174;16.370;2023-10-19T03:18:19;98002.14;;;10.44;100.00
70488;BME280;57976;48.174;16.370;2023-10-19T03:20:27;97998.04;;;10.42;100.00
70488;BME280;57976;48.174;16.370;2023-10-19T03:22:31;97999.62;;;10.38;100.00
70488;BME280;57976;48.174;16.370;2023-10-19T03:24:39;97998.48;;;10.37;100.00
70488;BME280;57976;48.174;16.370;2023-10-19T03:26:46;97996.69;;;10.36;100.00
70488;BME280;57976;48.174;16.370;2023-10-19T03:28:51;97991.58;;;10.36;100.00
70488;BME280;57976;48.174;16.370;2023-10-19T03:30:59;97985.16;;;10.36;100.00
70488;BME280;57976;48.174;16.370;2023-10-19T03:33:08;97981.48;;;10.35;100.00
70488;BME280;57976;48.174;16.370;2023-10-19T03:35:14;97990.63;;;10.33;100.00
70488;BME280;57976;48.174;16.370;2023-10-19T03:37:22;97991.80;;;10.31;100.00
70488;BME280;57976;48.174;16.370;2023-10-19T03:39:27;97992.17;;;10.31;100.00
70488;BME280;57976;48.174;16.370;2023-10-19T03:41:32;97986.11;;;10.31;100.00
70488;BME280;57976;48.174;16.370;2023-10-19T03:43:36;97983.53;;;10.33;100.00
70488;BME280;57976;48.174;16.370;2023-10-19T03:45:41;97975.13;;;10.34;100.00
70488;BME280;57976;48.174;16.370;2023-10-19T03:47:46;97979.02;;;10.36;100.00
70488;BME280;57976;48.174;16.370;2023-10-19T03:49:51;97982.33;;;10.36;100.00
70488;BME280;57976;48.174;16.370;2023-10-19T03:52:00;97980.46;;;10.31;100.00
70488;BME280;57976;48.174;16.370;2023-10-19T03:54:07;97979.65;;;10.28;100.00
70488;BME280;57976;48.174;16.370;2023-10-19T03:56:13;97975.40;;;10.24;100.00
70488;BME280;57976;48.174;16.370;2023-10-19T03:58:21;97970.58;;;10.23;100.00
70488;BME280;57976;48.174;16.370;2023-10-19T04:00:26;97974.42;;;10.18;100.00
70488;BME280;57976;48.174;16.370;2023-10-19T04:02:31;97982.08;;;10.16;100.00
70488;BME280;57976;48.174;16.370;2023-10-19T04:04:36;97980.85;;;10.16;100.00
70488;BME280;57976;48.174;16.370;2023-10-19T04:06:43;97972.66;;;10.12;100.00
70488;BME280;57976;48.174;16.370;2023-10-19T04:08:51;97969.60;;;10.09;100.00
70488;BME280;57976;48.174;16.370;2023-10-19T04:10:56;97967.86;;;10.06;100.00
70488;BME280;57976;48.174;16.370;2023-10-19T04:13:04;97959.61;;;10.02;100.00
70488;BME280;57976;48.174;16.370;2023-10-19T04:15:10;97943.19;;;10.00;100.00
70488;BME280;57976;48.174;16.370;2023-10-19T04:17:14;97936.95;;;9.99;100.00
70488;BME280;57976;48.174;16.370;2023-10-19T04:19:19;97936.04;;;9.99;100.00
70488;BME280;57976;48.174;16.370;2023-10-19T04:21:24;97941.50;;;10.01;100.00
70488;BME280;57976;48.174;16.370;2023-10-19T04:23:30;97931.28;;;10.00;100.00
70488;BME280;57976;48.174;16.370;2023-10-19T04:25:37;97929.84;;;10.03;100.00
70488;BME280;57976;48.174;16.370;2023-10-19T04:27:45;97933.73;;;10.03;100.00
70488;BME280;57976;48.174;16.370;2023-10-19T04:29:51;97943.48;;;10.04;100.00
70488;BME280;57976;48.174;16.370;2023-10-19T04:31:56;97943.52;;;10.07;100.00
70488;BME280;57976;48.174;16.370;2023-10-19T04:34:01;97935.05;;;10.09;100.00
70488;BME280;57976;48.174;16.370;2023-10-19T04:36:06;97927.67;;;10.10;100.00
70488;BME280;57976;48.174;16.370;2023-10-19T04:38:11;97927.35;;;10.13;100.00
70488;BME280;57976;48.174;16.370;2023-10-19T04:40:19;97920.85;;;10.15;100.00
70488;BME280;57976;48.174;16.370;2023-10-19T04:42:24;97914.55;;;10.17;100.00
70488;BME280;57976;48.174;16.370;2023-10-19T04:44:30;97904.04;;;10.18;100.00
70488;BME280;57976;48.174;16.370;2023-10-19T04:46:38;97900.39;;;10.19;100.00
70488;BME280;57976;48.174;16.370;2023-10-19T04:48:44;97900.15;;;10.18;100.00
70488;BME280;57976;48.174;16.370;2023-10-19T04:50:49;97903.55;;;10.18;100.00
70488;BME280;57976;48.174;16.370;2023-10-19T04:52:54;97909.40;;;10.18;100.00
70488;BME280;57976;48.174;16.370;2023-10-19T04:55:01;97907.79;;;10.17;100.00
70488;BME280;57976;48.174;16.370;2023-10-19T04:57:06;97903.48;;;10.17;100.00
70488;BME280;57976;48.174;16.370;2023-10-19T04:59:11;97907.02;;;10.18;100.00
70488;BME280;57976;48.174;16.370;2023-10-19T05:01:19;97902.08;;;10.21;100.00
70488;BME280;57976;48.174;16.370;2023-10-19T05:03:27;97893.83;;;10.26;100.00
70488;BME280;57976;48.174;16.370;2023-10-19T05:05:33;97894.52;;;10.28;100.00
70488;BME280;57976;48.174;16.370;2023-10-19T05:07:38;97896.09;;;10.29;100.00
70488;BME280;57976;48.174;16.370;2023-10-19T05:09:43;97904.45;;;10.29;100.00
70488;BME280;57976;48.174;16.370;2023-10-19T05:11:49;97912.83;;;10.30;100.00
70488;BME280;57976;48.174;16.370;2023-10-19T05:13:57;97905.63;;;10.32;100.00
70488;BME280;57976;48.174;16.370;2023-10-19T05:16:02;97899.96;;;10.34;100.00
70488;BME280;57976;48.174;16.370;2023-10-19T05:18:07;97896.02;;;10.38;100.00
70488;BME280;57976;48.174;16.370;2023-10-19T05:20:13;97892.95;;;10.40;100.00
70488;BME280;57976;48.174;16.370;2023-10-19T05:22:18;97894.66;;;10.42;100.00
70488;BME280;57976;48.174;16.370;2023-10-19T05:24:23;97899.57;;;10.45;100.00
70488;BME280;57976;48.174;16.370;2023-10-19T05:26:27;97903.96;;;10.46;100.00
70488;BME280;57976;48.174;16.370;2023-10-19T05:28:37;97903.69;;;10.49;100.00
70488;BME280;57976;48.174;16.370;2023-10-19T05:30:48;97899.11;;;10.51;100.00
70488;BME280;57976;48.174;16.370;2023-10-19T05:32:56;97889.63;;;10.54;100.00
70488;BME280;57976;48.174;16.370;2023-10-19T05:35:01;97888.23;;;10.56;100.00
70488;BME280;57976;48.174;16.370;2023-10-19T05:37:05;97897.07;;;10.61;100.00
70488;BME280;57976;48.174;16.370;2023-10-19T05:39:10;97895.86;;;10.64;100.00
70488;BME280;57976;48.174;16.370;2023-10-19T05:41:15;97898.20;;;10.67;100.00
70488;BME280;57976;48.174;16.370;2023-10-19T05:43:20;97896.95;;;10.71;100.00
70488;BME280;57976;48.174;16.370;2023-10-19T05:45:25;97886.63;;;10.74;100.00
70488;BME280;57976;48.174;16.370;2023-10-19T05:47:30;97879.84;;;10.76;100.00
70488;BME280;57976;48.174;16.370;2023-10-19T05:49:35;97874.05;;;10.76;100.00
70488;BME280;57976;48.174;16.370;2023-10-19T05:51:40;97871.02;;;10.77;100.00
70488;BME280;57976;48.174;16.370;2023-10-19T05:53:45;97872.89;;;10.79;100.00
70488;BME280;57976;48.174;16.370;2023-10-19T05:55:50;97873.96;;;10.80;100.00
70488;BME280;57976;48.174;16.370;2023-10-19T05:57:55;97874.17;;;10.80;100.00
70488;BME280;57976;48.174;16.370;2023-10-19T06:00:00;97875.57;;;10.83;100.00
70488;BME280;57976;48.174;16.370;2023-10-19T06:02:04;97877.73;;;10.86;100.00
70488;BME280;57976;48.174;16.370;2023-10-19T06:04:11;97872.77;;;10.88;100.00
70488;BME280;57976;48.174;16.370;2023-10-19T06:06:16;97870.23;;;10.88;100.00
70488;BME280;57976;48.174;16.370;2023-10-19T06:08:20;97871.56;;;10.89;100.00
70488;BME280;57976;48.174;16.370;2023-10-19T06:10:27;97866.90;;;10.90;100.00
70488;BME280;57976;48.174;16.370;2023-10-19T06:12:32;97867.17;;;10.94;100.00
70488;BME280;57976;48.174;16.370;2023-10-19T06:14:38;97864.19;;;10.96;100.00
70488;BME280;57976;48.174;16.370;2023-10-19T06:16:43;97868.39;;;11.01;100.00
70488;BME280;57976;48.174;16.370;2023-10-19T06:18:48;97875.83;;;11.03;100.00
70488;BME280;57976;48.174;16.370;2023-10-19T06:20:56;97879.20;;;11.07;100.00
70488;BME280;57976;48.174;16.370;2023-10-19T06:23:01;97883.02;;;11.12;100.00
70488;BME280;57976;48.174;16.370;2023-10-19T06:25:08;97879.45;;;11.21;100.00
70488;BME280;57976;48.174;16.370;2023-10-19T06:27:20;97877.91;;;11.31;100.00
70488;BME280;57976;48.174;16.370;2023-10-19T06:29:25;97879.80;;;11.41;100.00
70488;BME280;57976;48.174;16.370;2023-10-19T06:31:30;97879.66;;;11.52;100.00
70488;BME280;57976;48.174;16.370;2023-10-19T06:33:36;97876.98;;;11.58;100.00
70488;BME280;57976;48.174;16.370;2023-10-19T06:35:44;97871.99;;;11.63;100.00
70488;BME280;57976;48.174;16.370;2023-10-19T06:37:49;97866.84;;;11.70;100.00
70488;BME280;57976;48.174;16.370;2023-10-19T06:39:54;97866.81;;;11.81;100.00
70488;BME280;57976;48.174;16.370;2023-10-19T06:41:58;97873.17;;;11.89;100.00
70488;BME280;57976;48.174;16.370;2023-10-19T06:44:07;97880.64;;;11.92;100.00
70488;BME280;57976;48.174;16.370;2023-10-19T06:46:12;97881.77;;;11.96;100.00
70488;BME280;57976;48.174;16.370;2023-10-19T06:48:18;97878.39;;;11.96;100.00
70488;BME280;57976;48.174;16.370;2023-10-19T06:50:24;97879.58;;;12.00;100.00
70488;BME280;57976;48.174;16.370;2023-10-19T06:52:28;97881.16;;;12.07;100.00
70488;BME280;57976;48.174;16.370;2023-10-19T06:54:33;97883.41;;;12.10;100.00
70488;BME280;57976;48.174;16.370;2023-10-19T06:56:38;97881.30;;;12.14;100.00
70488;BME280;57976;48.174;16.370;2023-10-19T06:58:46;97873.91;;;12.18;100.00
70488;BME280;57976;48.174;16.370;2023-10-19T07:00:54;97868.27;;;12.23;100.00
70488;BME280;57976;48.174;16.370;2023-10-19T07:02:59;97864.83;;;12.26;100.00
70488;BME280;57976;48.174;16.370;2023-10-19T07:05:04;97862.14;;;12.28;100.00
70488;BME280;57976;48.174;16.370;2023-10-19T07:07:09;97860.41;;;12.31;100.00
70488;BME280;57976;48.174;16.370;2023-10-19T07:09:17;97855.27;;;12.34;100.00
70488;BME280;57976;48.174;16.370;2023-10-19T07:11:22;97852.46;;;12.40;100.00
70488;BME280;57976;48.174;16.370;2023-10-19T07:13:27;97847.05;;;12.46;100.00
70488;BME280;57976;48.174;16.370;2023-10-19T07:15:32;97839.76;;;12.49;100.00
70488;BME280;57976;48.174;16.370;2023-10-19T07:17:37;97843.75;;;12.52;100.00
70488;BME280;57976;48.174;16.370;2023-10-19T07:19:44;97842.95;;;12.54;100.00
70488;BME280;57976;48.174;16.370;2023-10-19T07:21:52;97841.87;;;12.57;100.00
70488;BME280;57976;48.174;16.370;2023-10-19T07:23:57;97842.43;;;12.64;100.00
70488;BME280;57976;48.174;16.370;2023-10-19T07:26:01;97843.85;;;12.67;100.00
70488;BME280;57976;48.174;16.370;2023-10-19T07:28:08;97849.06;;;12.69;100.00
70488;BME280;57976;48.174;16.370;2023-10-19T07:30:13;97856.56;;;12.74;100.00
70488;BME280;57976;48.174;16.370;2023-10-19T07:32:18;97856.58;;;12.77;100.00
70488;BME280;57976;48.174;16.370;2023-10-19T07:34:23;97857.02;;;12.78;100.00
70488;BME280;57976;48.174;16.370;2023-10-19T07:36:32;97852.92;;;12.79;100.00
70488;BME280;57976;48.174;16.370;2023-10-19T07:38:37;97849.81;;;12.79;100.00
70488;BME280;57976;48.174;16.370;2023-10-19T07:40:43;97848.55;;;12.82;100.00
70488;BME280;57976;48.174;16.370;2023-10-19T07:42:49;97846.63;;;12.86;100.00
70488;BME280;57976;48.174;16.370;2023-10-19T07:44:57;97843.31;;;12.91;100.00
70488;BME280;57976;48.174;16.370;2023-10-19T07:47:02;97847.57;;;12.94;100.00
70488;BME280;57976;48.174;16.370;2023-10-19T07:49:07;97846.02;;;12.95;100.00
70488;BME280;57976;48.174;16.370;2023-10-19T07:51:12;97841.26;;;12.93;100.00
70488;BME280;57976;48.174;16.370;2023-10-19T07:53:16;97843.64;;;12.97;100.00
70488;BME280;57976;48.174;16.370;2023-10-19T07:55:24;97834.68;;;13.00;100.00
70488;BME280;57976;48.174;16.370;2023-10-19T07:57:29;97835.27;;;13.04;100.00
70488;BME280;57976;48.174;16.370;2023-10-19T07:59:34;97830.40;;;13.06;100.00
70488;BME280;57976;48.174;16.370;2023-10-19T08:01:39;97830.25;;;13.08;100.00
70488;BME280;57976;48.174;16.370;2023-10-19T08:03:45;97832.63;;;13.10;100.00
70488;BME280;57976;48.174;16.370;2023-10-19T08:05:50;97827.13;;;13.10;100.00
70488;BME280;57976;48.174;16.370;2023-10-19T08:07:58;97836.52;;;13.07;100.00
70488;BME280;57976;48.174;16.370;2023-10-19T08:10:03;97834.15;;;13.07;100.00
70488;BME280;57976;48.174;16.370;2023-10-19T08:12:11;97835.46;;;13.10;100.00
70488;BME280;57976;48.174;16.370;2023-10-19T08:14:16;97840.45;;;13.11;100.00
70488;BME280;57976;48.174;16.370;2023-10-19T08:16:21;97845.55;;;13.08;100.00
70488;BME280;57976;48.174;16.370;2023-10-19T08:18:27;97851.80;;;13.07;100.00
70488;BME280;57976;48.174;16.370;2023-10-19T08:20:32;97855.63;;;13.10;100.00
70488;BME280;57976;48.174;16.370;2023-10-19T08:22:37;97854.92;;;13.15;100.00
70488;BME280;57976;48.174;16.370;2023-10-19T08:24:42;97845.46;;;13.17;100.00
70488;BME280;57976;48.174;16.370;2023-10-19T08:26:53;97833.08;;;13.18;100.00
70488;BME280;57976;48.174;16.370;2023-10-19T08:28:58;97825.95;;;13.22;100.00
70488;BME280;57976;48.174;16.370;2023-10-19T08:31:10;97830.77;;;13.30;100.00
70488;BME280;57976;48.174;16.370;2023-10-19T08:33:16;97830.62;;;13.37;100.00
70488;BME280;57976;48.174;16.370;2023-10-19T08:35:22;97834.64;;;13.45;100.00
70488;BME280;57976;48.174;16.370;2023-10-19T08:37:27;97839.98;;;13.53;100.00
70488;BME280;57976;48.174;16.370;2023-10-19T08:39:33;97843.43;;;13.60;100.00
70488;BME280;57976;48.174;16.370;2023-10-19T08:41:38;97834.68;;;13.64;100.00
70488;BME280;57976;48.174;16.370;2023-10-19T08:43:43;97828.00;;;13.57;100.00
70488;BME280;57976;48.174;16.370;2023-10-19T08:45:48;97825.31;;;13.49;100.00
70488;BME280;57976;48.174;16.370;2023-10-19T08:47:56;97826.06;;;13.50;100.00
70488;BME280;57976;48.174;16.370;2023-10-19T08:50:02;97830.83;;;13.56;100.00
70488;BME280;57976;48.174;16.370;2023-10-19T08:52:10;97823.73;;;13.61;100.00
70488;BME280;57976;48.174;16.370;2023-10-19T08:54:20;97826.04;;;13.69;100.00
70488;BME280;57976;48.174;16.370;2023-10-19T08:56:25;97818.98;;;13.76;100.00
70488;BME280;57976;48.174;16.370;2023-10-19T08:58:31;97814.04;;;13.83;100.00
70488;BME280;57976;48.174;16.370;2023-10-19T09:00:51;97816.32;;;13.88;100.00
70488;BME280;57976;48.174;16.370;2023-10-19T09:02:56;97821.29;;;13.94;100.00
70488;BME280;57976;48.174;16.370;2023-10-19T09:05:07;97815.31;;;13.99;100.00
70488;BME280;57976;48.174;16.370;2023-10-19T09:07:12;97811.65;;;14.05;100.00
70488;BME280;57976;48.174;16.370;2023-10-19T09:09:17;97804.45;;;14.10;100.00
70488;BME280;57976;48.174;16.370;2023-10-19T09:11:23;97794.59;;;14.10;100.00
70488;BME280;57976;48.174;16.370;2023-10-19T09:13:45;97792.54;;;14.09;100.00
70488;BME280;57976;48.174;16.370;2023-10-19T09:15:51;97798.77;;;14.08;100.00
70488;BME280;57976;48.174;16.370;2023-10-19T09:17:56;97796.35;;;14.06;100.00
70488;BME280;57976;48.174;16.370;2023-10-19T09:20:06;97798.53;;;14.14;100.00
70488;BME280;57976;48.174;16.370;2023-10-19T09:22:11;97794.90;;;14.20;100.00
70488;BME280;57976;48.174;16.370;2023-10-19T09:24:17;97794.28;;;14.23;99.94
70488;BME280;57976;48.174;16.370;2023-10-19T09:26:24;97791.92;;;14.23;99.90
70488;BME280;57976;48.174;16.370;2023-10-19T09:28:29;97790.33;;;14.25;99.80
70488;BME280;57976;48.174;16.370;2023-10-19T09:30:34;97785.63;;;14.34;99.87
70488;BME280;57976;48.174;16.370;2023-10-19T09:32:40;97788.00;;;14.42;99.48
70488;BME280;57976;48.174;16.370;2023-10-19T09:34:45;97790.77;;;14.48;99.16
70488;BME280;57976;48.174;16.370;2023-10-19T09:36:50;97788.04;;;14.51;98.51
70488;BME280;57976;48.174;16.370;2023-10-19T09:38:56;97787.40;;;14.55;98.68
70488;BME280;57976;48.174;16.370;2023-10-19T09:41:01;97782.90;;;14.57;98.53
70488;BME280;57976;48.174;16.370;2023-10-19T09:43:11;97783.82;;;14.59;98.08
70488;BME280;57976;48.174;16.370;2023-10-19T09:45:20;97777.52;;;14.64;98.43
70488;BME280;57976;48.174;16.370;2023-10-19T09:47:39;97777.96;;;14.72;97.97
70488;BME280;57976;48.174;16.370;2023-10-19T09:49:46;97784.61;;;14.73;97.42
70488;BME280;57976;48.174;16.370;2023-10-19T09:51:51;97781.11;;;14.72;97.70
70488;BME280;57976;48.174;16.370;2023-10-19T09:54:20;97773.99;;;14.73;98.06
70488;BME280;57976;48.174;16.370;2023-10-19T09:56:30;97763.81;;;14.80;98.01
70488;BME280;57976;48.174;16.370;2023-10-19T09:58:39;97756.48;;;14.82;97.79
70488;BME280;57976;48.174;16.370;2023-10-19T10:00:52;97757.03;;;14.92;97.82
70488;BME280;57976;48.174;16.370;2023-10-19T10:02:57;97764.05;;;14.98;95.72
70488;BME280;57976;48.174;16.370;2023-10-19T10:05:02;97766.90;;;14.92;96.26
70488;BME280;57976;48.174;16.370;2023-10-19T10:07:08;97767.23;;;14.92;97.08
70488;BME280;57976;48.174;16.370;2023-10-19T10:09:13;97770.77;;;15.00;97.09
70488;BME280;57976;48.174;16.370;2023-10-19T10:11:26;97775.11;;;15.07;96.47
70488;BME280;57976;48.174;16.370;2023-10-19T10:13:39;97773.51;;;15.10;95.88
70488;BME280;57976;48.174;16.370;2023-10-19T10:15:49;97764.12;;;15.14;95.92
70488;BME280;57976;48.174;16.370;2023-10-19T10:17:56;97762.89;;;15.17;95.64
70488;BME280;57976;48.174;16.370;2023-10-19T10:20:32;97761.05;;;15.23;95.59
70488;BME280;57976;48.174;16.370;2023-10-19T10:22:38;97749.42;;;15.28;94.00
70488;BME280;57976;48.174;16.370;2023-10-19T10:24:43;97747.92;;;15.25;94.05
70488;BME280;57976;48.174;16.370;2023-10-19T10:27:05;97748.83;;;15.23;94.26
70488;BME280;57976;48.174;16.370;2023-10-19T10:29:11;97747.16;;;15.23;94.39
70488;BME280;57976;48.174;16.370;2023-10-19T10:31:20;97742.13;;;15.24;94.27
70488;BME280;57976;48.174;16.370;2023-10-19T10:35:57;97737.77;;;15.33;95.29
70488;BME280;57976;48.174;16.370;2023-10-19T10:38:06;97735.41;;;15.43;95.14
70488;BME280;57976;48.174;16.370;2023-10-19T10:40:11;97728.05;;;15.53;93.94
70488;BME280;57976;48.174;16.370;2023-10-19T10:42:17;97720.91;;;15.57;93.98
70488;BME280;57976;48.174;16.370;2023-10-19T10:44:37;97720.64;;;15.57;93.13
70488;BME280;57976;48.174;16.370;2023-10-19T10:46:42;97719.29;;;15.58;93.98
70488;BME280;57976;48.174;16.370;2023-10-19T10:48:53;97718.33;;;15.61;93.77
70488;BME280;57976;48.174;16.370;2023-10-19T10:50:58;97707.79;;;15.66;93.87
70488;BME280;57976;48.174;16.370;2023-10-19T10:53:05;97699.27;;;15.71;93.48
70488;BME280;57976;48.174;16.370;2023-10-19T10:55:13;97691.48;;;15.76;93.15
70488;BME280;57976;48.174;16.370;2023-10-19T10:57:19;97683.87;;;15.75;91.84